Time;durP1;ratioP1;P1;durP2;ratioP2;P2;SDS_P1;SDS_P2;PMS_P1;PMS_P2;Temp;Humidity;BMP_temperature;BMP_pressure;BME280_temperature;BME280_humidity;BME280_pressure;Samples;Min_cycle;Max_cycle;Signal;HPM_P1;HPM_P2
2023/02/13 00:00:57;;;;;;;9.95;5.30;;;5.40;99.90;;;;;;5053198;28;20045;-56
2023/02/13 00:03:22;;;;;;;8.52;4.90;;;5.40;99.90;;;;;;5037239;28;20036;-59
2023/02/13 00:05:48;;;;;;;11.70;5.13;;;5.40;99.90;;;;;;5057720;28;20048;-53
2023/02/13 00:08:13;;;;;;;9.35;4.78;;;5.40;99.90;;;;;;5036666;28;20578;-58
2023/02/13 00:10:39;;;;;;;8.40;4.68;;;5.40;99.90;;;;;;5057507;28;20037;-57
2023/02/13 00:13:05;;;;;;;7.25;4.28;;;5.40;99.90;;;;;;5053031;28;20085;-56
2023/02/13 00:15:30;;;;;;;8.25;4.55;;;5.50;99.90;;;;;;5058258;28;20036;-57
2023/02/13 00:17:56;;;;;;;;;;;5.50;99.90;;;;;;5048027;28;20040;-54
2023/02/13 00:20:23;;;;;;;6.82;3.55;;;5.50;99.90;;;;;;5043454;28;19920;-57
2023/02/13 00:22:48;;;;;;;7.53;4.15;;;5.50;99.90;;;;;;5041964;28;20047;-55
2023/02/13 00:25:14;;;;;;;5.35;3.50;;;5.50;99.90;;;;;;5044855;28;20397;-57
2023/02/13 00:27:40;;;;;;;6.20;3.35;;;5.50;99.90;;;;;;5040584;28;20093;-54
2023/02/13 00:30:06;;;;;;;7.95;3.70;;;5.50;99.90;;;;;;5033435;28;20091;-57
2023/02/13 00:32:32;;;;;;;4.32;2.53;;;5.60;99.90;;;;;;5038924;28;21432;-52
2023/02/13 00:34:57;;;;;;;7.70;2.95;;;5.50;99.90;;;;;;5038799;28;20037;-60
2023/02/13 00:37:23;;;;;;;;;;;5.50;99.90;;;;;;5042536;28;20041;-58
2023/02/13 00:39:49;;;;;;;4.10;2.20;;;5.50;99.90;;;;;;5043454;28;20007;-59
2023/02/13 00:42:15;;;;;;;3.00;1.95;;;5.40;99.90;;;;;;5040584;28;20132;-57
2023/02/13 00:44:40;;;;;;;3.63;2.28;;;5.40;99.90;;;;;;5040369;28;20063;-58
2023/02/13 00:47:06;;;;;;;4.22;2.53;;;5.50;99.90;;;;;;5039869;28;20041;-57
2023/02/13 00:49:31;;;;;;;5.38;2.80;;;5.40;99.90;;;;;;5044048;28;20448;-57
2023/02/13 00:51:57;;;;;;;3.58;2.20;;;5.40;99.90;;;;;;5043532;28;20037;-57
2023/02/13 00:54:22;;;;;;;4.78;2.28;;;5.40;99.90;;;;;;5036236;28;20041;-54
2023/02/13 00:56:48;;;;;;;2.92;1.85;;;5.40;99.90;;;;;;5040616;28;20064;-59
2023/02/13 00:59:15;;;;;;;3.58;2.20;;;5.40;99.90;;;;;;5042890;28;20033;-57
2023/02/13 01:01:42;;;;;;;3.58;2.05;;;5.40;99.90;;;;;;5039411;28;20144;-57
2023/02/13 01:04:07;;;;;;;8.02;2.85;;;5.40;99.90;;;;;;5041851;28;20048;-58
2023/02/13 01:06:33;;;;;;;7.53;2.83;;;5.40;99.90;;;;;;5043935;28;20037;-56
2023/02/13 01:08:58;;;;;;;4.75;2.50;;;5.30;99.90;;;;;;5041169;28;20048;-59
2023/02/13 01:11:24;;;;;;;6.63;2.95;;;5.30;99.90;;;;;;5042562;28;20456;-59
2023/02/13 01:13:50;;;;;;;4.90;2.95;;;5.30;99.90;;;;;;5041855;28;20406;-57
2023/02/13 01:16:16;;;;;;;5.50;2.65;;;5.20;99.90;;;;;;5039908;28;20405;-57
2023/02/13 01:18:42;;;;;;;6.47;2.45;;;5.20;99.90;;;;;;5036080;28;20033;-59
2023/02/13 01:21:16;;;;;;;4.00;2.40;;;5.20;99.90;;;;;;5043698;28;20132;-57
2023/02/13 01:23:42;;;;;;;4.10;2.30;;;5.20;99.90;;;;;;5041555;28;20041;-59
2023/02/13 01:26:09;;;;;;;4.18;2.17;;;5.20;99.90;;;;;;5043443;28;20094;-56
2023/02/13 01:28:35;;;;;;;3.80;2.40;;;5.30;99.90;;;;;;5038733;28;20064;-55
2023/02/13 01:31:01;;;;;;;6.05;2.50;;;5.30;99.90;;;;;;5036681;28;20083;-57
2023/02/13 01:33:28;;;;;;;4.97;2.78;;;5.30;99.90;;;;;;5039663;28;20064;-59
2023/02/13 01:35:53;;;;;;;4.03;2.40;;;5.30;99.90;;;;;;5037511;28;20057;-59
2023/02/13 01:38:19;;;;;;;4.20;2.58;;;5.20;99.90;;;;;;5036688;28;20073;-57
2023/02/13 01:40:49;;;;;;;3.65;2.22;;;5.30;99.90;;;;;;5040227;28;20060;-58
2023/02/13 01:43:15;;;;;;;5.75;2.40;;;5.30;99.90;;;;;;5039415;28;20112;-54
2023/02/13 01:45:43;;;;;;;3.65;2.25;;;5.30;99.90;;;;;;5019674;28;20048;-59
2023/02/13 01:48:21;;;;;;;5.07;2.50;;;5.30;99.90;;;;;;5036221;28;20045;-60
2023/02/13 01:50:54;;;;;;;4.18;2.50;;;5.30;99.90;;;;;;5035197;28;20080;-55
2023/02/13 01:53:52;;;;;;;5.25;2.65;;;5.40;99.90;;;;;;5037340;28;20040;-57
2023/02/13 01:56:27;;;;;;;4.88;2.67;;;5.30;99.90;;;;;;5026824;28;20102;-58
2023/02/13 01:58:58;;;;;;;7.43;3.10;;;5.20;99.90;;;;;;5036356;28;20243;-58
2023/02/13 02:01:25;;;;;;;3.90;2.70;;;5.10;99.90;;;;;;5033905;28;20037;-60
2023/02/13 02:03:58;;;;;;;6.30;2.60;;;5.10;99.90;;;;;;5040797;28;20239;-52
2023/02/13 02:06:31;;;;;;;4.53;2.30;;;5.00;99.90;;;;;;5041526;28;20045;-58
2023/02/13 02:09:02;;;;;;;6.53;3.38;;;5.00;99.90;;;;;;5037681;28;20040;-55
2023/02/13 02:11:36;;;;;;;5.15;2.85;;;4.90;99.90;;;;;;5043089;28;20037;-57
2023/02/13 02:14:02;;;;;;;13.75;3.28;;;4.80;99.90;;;;;;5039770;28;20037;-59
2023/02/13 02:16:30;;;;;;;8.68;3.65;;;4.70;99.90;;;;;;5042980;28;20445;-56
2023/02/13 02:18:55;;;;;;;4.35;2.70;;;4.70;99.90;;;;;;5038940;28;20044;-56
2023/02/13 02:21:46;;;;;;;8.25;2.88;;;4.60;99.90;;;;;;5042458;28;20097;-58
2023/02/13 02:24:23;;;;;;;11.48;3.17;;;4.60;99.90;;;;;;5024066;28;20055;-60
2023/02/13 02:27:25;;;;;;;6.85;2.58;;;4.60;99.90;;;;;;5040617;28;20106;-60
2023/02/13 02:30:09;;;;;;;4.40;2.60;;;4.50;99.90;;;;;;5038348;28;20521;-58
2023/02/13 02:32:40;;;;;;;8.73;3.63;;;4.60;99.90;;;;;;5036069;28;20402;-60
2023/02/13 02:35:26;;;;;;;5.70;2.92;;;4.60;99.90;;;;;;5039201;28;20041;-58
2023/02/13 02:38:19;;;;;;;5.18;2.97;;;4.60;99.90;;;;;;5037528;28;20033;-57
2023/02/13 02:41:05;;;;;;;4.65;2.80;;;4.80;99.90;;;;;;5041601;28;20401;-58
2023/02/13 02:43:59;;;;;;;4.40;2.03;;;4.80;99.90;;;;;;5035781;28;20040;-54
2023/02/13 02:49:57;;;;;;;4.13;2.05;;;4.80;99.90;;;;;;5001447;28;20053;-54
2023/02/13 02:52:22;;;;;;;3.47;1.60;;;4.90;99.90;;;;;;5038962;28;20045;-59
2023/02/13 02:55:06;;;;;;;2.45;1.63;;;4.90;99.90;;;;;;5041772;28;20049;-58
2023/02/13 03:06:12;;;;;;;2.67;1.50;;;4.70;99.90;;;;;;5041648;28;20041;-56
2023/02/13 03:14:13;;;;;;;2.25;1.30;;;4.60;99.90;;;;;;5038230;28;20040;-57
2023/02/13 03:22:27;;;;;;;2.20;1.15;;;4.50;99.90;;;;;;5041864;28;20037;-55
2023/02/13 03:24:59;;;;;;;1.50;1.10;;;4.50;99.90;;;;;;5038172;28;20037;-59
2023/02/13 03:30:57;;;;;;;1.88;1.02;;;4.40;99.90;;;;;;5040583;28;20041;-58
2023/02/13 03:33:38;;;;;;;1.45;0.90;;;4.40;99.90;;;;;;5038802;28;20119;-59
2023/02/13 03:39:18;;;;;;;2.28;1.13;;;4.40;99.90;;;;;;5039104;28;20051;-58
2023/02/13 03:41:54;;;;;;;1.48;1.05;;;4.30;99.90;;;;;;5039452;28;20090;-59
2023/02/13 03:44:35;;;;;;;2.53;1.10;;;4.20;99.90;;;;;;5038799;28;20043;-53
2023/02/13 03:47:04;;;;;;;1.58;0.95;;;4.20;99.90;;;;;;5039106;28;20080;-58
2023/02/13 03:52:31;;;;;;;1.50;0.93;;;4.10;99.90;;;;;;5034099;28;20042;-59
2023/02/13 04:00:41;;;;;;;0.63;0.57;;;3.90;99.90;;;;;;5040982;28;20045;-56
2023/02/13 04:03:21;;;;;;;0.95;0.65;;;3.80;99.90;;;;;;5041996;28;20148;-60
2023/02/13 04:05:51;;;;;;;1.02;0.60;;;3.70;99.90;;;;;;5044433;28;21296;-57
2023/02/13 04:08:16;;;;;;;0.88;0.60;;;3.70;99.90;;;;;;5041901;28;20048;-55
2023/02/13 04:11:05;;;;;;;1.95;0.60;;;3.60;99.90;;;;;;5042688;28;20064;-56
2023/02/13 04:13:40;;;;;;;0.77;0.55;;;3.60;99.90;;;;;;5041547;28;20163;-55
2023/02/13 04:16:18;;;;;;;1.05;0.60;;;3.50;99.90;;;;;;5044914;28;20053;-55
2023/02/13 04:18:44;;;;;;;0.90;0.50;;;3.50;99.90;;;;;;5041283;28;20504;-58
2023/02/13 04:21:10;;;;;;;0.52;0.40;;;3.50;99.90;;;;;;5027473;28;20041;-57
2023/02/13 04:23:35;;;;;;;1.17;0.50;;;3.40;99.90;;;;;;5042642;28;20044;-57
2023/02/13 04:26:05;;;;;;;0.63;0.40;;;3.40;99.90;;;;;;5044650;28;20398;-59
2023/02/13 04:28:30;;;;;;;0.77;0.50;;;3.40;99.90;;;;;;5022169;28;20540;-56
2023/02/13 04:30:56;;;;;;;0.73;0.57;;;3.40;99.90;;;;;;5044380;28;20133;-55
2023/02/13 04:33:22;;;;;;;1.30;0.77;;;3.30;99.90;;;;;;5042379;28;20052;-56
2023/02/13 04:35:48;;;;;;;2.60;0.50;;;3.20;99.90;;;;;;5045257;28;20043;-55
2023/02/13 04:38:13;;;;;;;1.00;0.60;;;3.20;99.90;;;;;;5042706;28;20036;-58
2023/02/13 04:40:39;;;;;;;2.95;0.63;;;3.20;99.90;;;;;;5043649;28;20045;-56
2023/02/13 04:43:05;;;;;;;0.90;0.50;;;3.10;99.90;;;;;;5039227;28;20040;-57
2023/02/13 04:45:31;;;;;;;1.10;0.73;;;3.10;99.90;;;;;;5045544;28;20525;-57
2023/02/13 04:47:57;;;;;;;1.33;0.63;;;3.10;99.90;;;;;;5038649;28;20036;-55
2023/02/13 04:50:23;;;;;;;1.70;0.50;;;3.00;99.90;;;;;;5038728;28;20090;-55
2023/02/13 04:52:54;;;;;;;1.35;0.43;;;3.00;99.90;;;;;;5040595;28;20041;-60
2023/02/13 04:55:21;;;;;;;0.95;0.52;;;2.90;99.90;;;;;;5045260;28;20051;-54
2023/02/13 04:57:47;;;;;;;0.63;0.43;;;2.90;99.90;;;;;;5041486;28;21665;-56
2023/02/13 05:00:13;;;;;;;2.42;0.60;;;2.80;99.90;;;;;;5043774;28;20037;-59
2023/02/13 05:02:39;;;;;;;0.70;0.52;;;2.80;99.90;;;;;;5042635;28;20466;-59
2023/02/13 05:05:05;;;;;;;1.02;0.65;;;2.80;99.90;;;;;;5043688;28;20125;-59
2023/02/13 05:07:30;;;;;;;1.00;0.55;;;2.80;99.90;;;;;;5041453;28;20041;-56
2023/02/13 05:09:56;;;;;;;0.88;0.60;;;2.80;99.90;;;;;;5038725;28;20068;-58
2023/02/13 05:12:22;;;;;;;0.80;0.60;;;2.80;99.90;;;;;;5038050;28;20052;-57
2023/02/13 05:14:47;;;;;;;1.10;0.77;;;2.70;99.90;;;;;;5042535;28;20056;-55
2023/02/13 05:17:13;;;;;;;1.35;0.90;;;2.70;99.90;;;;;;5039729;28;20131;-58
2023/02/13 05:19:38;;;;;;;2.55;1.25;;;2.80;99.90;;;;;;5042669;28;20025;-57
2023/02/13 05:24:48;;;;;;;2.33;0.85;;;2.80;99.90;;;;;;5041518;28;20041;-57
2023/02/13 05:27:13;;;;;;;1.77;1.10;;;2.80;99.90;;;;;;5039520;28;20040;-59
2023/02/13 05:29:39;;;;;;;1.08;0.70;;;2.70;99.90;;;;;;5026387;28;20036;-58
2023/02/13 05:32:04;;;;;;;1.92;0.73;;;2.70;99.90;;;;;;5042845;28;20044;-58
2023/02/13 05:34:30;;;;;;;1.77;1.10;;;2.60;99.90;;;;;;5039714;28;20040;-57
2023/02/13 05:36:55;;;;;;;2.35;1.20;;;2.70;99.90;;;;;;5041081;28;20055;-57
2023/02/13 05:39:21;;;;;;;2.78;0.90;;;2.60;99.90;;;;;;5040511;28;20044;-56
2023/02/13 05:41:48;;;;;;;2.33;0.98;;;2.60;99.90;;;;;;5023853;28;20240;-56
2023/02/13 05:44:14;;;;;;;0.90;0.63;;;2.50;99.90;;;;;;5038136;28;20124;-57
2023/02/13 05:46:41;;;;;;;1.17;0.60;;;2.60;99.90;;;;;;5037363;28;20049;-60
2023/02/13 05:49:09;;;;;;;1.33;0.63;;;2.50;99.90;;;;;;5039984;28;20416;-58
2023/02/13 05:51:34;;;;;;;0.55;0.40;;;2.50;99.90;;;;;;5021984;28;20045;-58
2023/02/13 05:54:00;;;;;;;1.33;0.70;;;2.50;99.90;;;;;;5041319;28;20029;-56
2023/02/13 05:56:26;;;;;;;2.28;0.70;;;2.50;99.90;;;;;;5043424;28;20049;-55
2023/02/13 05:58:53;;;;;;;0.98;0.60;;;2.40;99.90;;;;;;5035213;28;20037;-56
2023/02/13 06:01:18;;;;;;;3.03;0.77;;;2.40;99.90;;;;;;5040739;28;20071;-57
2023/02/13 06:03:44;;;;;;;0.98;0.70;;;2.40;99.90;;;;;;5035440;28;20060;-55
2023/02/13 06:06:09;;;;;;;3.03;0.63;;;2.40;99.90;;;;;;5035216;28;20152;-60
2023/02/13 06:08:35;;;;;;;0.63;0.40;;;2.40;99.90;;;;;;5037114;28;20040;-55
2023/02/13 06:11:01;;;;;;;0.47;0.40;;;2.40;99.90;;;;;;5040305;28;20060;-57
2023/02/13 06:13:27;;;;;;;0.73;0.40;;;2.30;99.90;;;;;;5040968;28;20452;-57
2023/02/13 06:15:52;;;;;;;4.18;0.82;;;2.40;99.90;;;;;;5039882;28;20047;-58
2023/02/13 06:18:18;;;;;;;1.40;0.52;;;2.30;99.90;;;;;;5039933;28;20040;-59
2023/02/13 06:20:44;;;;;;;0.40;0.32;;;2.20;99.90;;;;;;5036322;28;20048;-57
2023/02/13 06:23:09;;;;;;;1.17;0.40;;;2.30;99.90;;;;;;5019642;28;20049;-57
2023/02/13 06:25:35;;;;;;;1.25;0.50;;;2.20;99.90;;;;;;5031828;28;20043;-58
2023/02/13 06:28:02;;;;;;;1.42;0.98;;;2.30;99.90;;;;;;5032884;28;20040;-59
2023/02/13 06:30:28;;;;;;;1.10;0.60;;;2.20;99.90;;;;;;5035661;28;20044;-53
2023/02/13 06:32:54;;;;;;;0.90;0.50;;;2.20;99.90;;;;;;5036179;28;20055;-60
2023/02/13 06:35:20;;;;;;;1.25;0.60;;;2.20;99.90;;;;;;5036163;28;20040;-52
2023/02/13 06:37:45;;;;;;;0.68;0.40;;;2.20;99.90;;;;;;5037262;28;20036;-52
2023/02/13 06:40:12;;;;;;;1.02;0.52;;;2.20;99.90;;;;;;5041856;28;20032;-57
2023/02/13 06:42:38;;;;;;;0.73;0.60;;;2.20;99.90;;;;;;5038587;28;20029;-55
2023/02/13 06:45:04;;;;;;;1.10;0.52;;;2.20;99.90;;;;;;5036857;28;20032;-55
2023/02/13 06:47:30;;;;;;;0.68;0.40;;;2.20;99.90;;;;;;5033267;28;20190;-57
2023/02/13 06:49:56;;;;;;;0.40;0.25;;;2.20;99.90;;;;;;5034180;28;20132;-57
2023/02/13 06:52:21;;;;;;;0.93;0.43;;;2.20;99.90;;;;;;5018106;28;20041;-55
2023/02/13 06:54:47;;;;;;;0.50;0.50;;;2.20;99.90;;;;;;5035063;28;20076;-56
2023/02/13 06:57:12;;;;;;;1.52;0.40;;;2.20;99.90;;;;;;5039747;28;20475;-59
2023/02/13 06:59:38;;;;;;;0.68;0.30;;;2.30;99.90;;;;;;5021686;28;20057;-57
2023/02/13 07:02:03;;;;;;;0.32;0.20;;;2.30;99.90;;;;;;5038558;28;20039;-60
2023/02/13 07:04:29;;;;;;;1.02;0.60;;;2.30;99.90;;;;;;5036996;28;20067;-53
2023/02/13 07:06:55;;;;;;;0.88;0.43;;;2.30;99.90;;;;;;5037709;28;20790;-55
2023/02/13 07:09:22;;;;;;;1.92;0.60;;;2.30;99.90;;;;;;5038327;28;20320;-59
2023/02/13 07:11:48;;;;;;;1.30;0.40;;;2.20;99.90;;;;;;5041866;28;20047;-54
2023/02/13 07:14:14;;;;;;;1.65;0.85;;;2.20;99.90;;;;;;5036775;28;20041;-55
2023/02/13 07:16:39;;;;;;;1.70;0.50;;;2.20;99.90;;;;;;5039398;28;20183;-57
2023/02/13 07:19:05;;;;;;;2.13;0.70;;;2.10;99.90;;;;;;5035807;28;20037;-54
2023/02/13 07:21:30;;;;;;;9.10;0.90;;;2.10;99.90;;;;;;5041553;28;20167;-56
2023/02/13 07:23:56;;;;;;;85.43;35.33;;;2.10;99.90;;;;;;5037821;28;20053;-54
2023/02/13 07:26:21;;;;;;;90.68;46.35;;;2.00;99.90;;;;;;5020565;28;20140;-59
2023/02/13 07:28:47;;;;;;;35.45;20.00;;;2.00;99.90;;;;;;5034911;28;20106;-56
2023/02/13 07:31:12;;;;;;;30.17;17.33;;;2.10;99.90;;;;;;5039856;28;20029;-54
2023/02/13 07:33:38;;;;;;;12.10;6.93;;;2.10;99.90;;;;;;5037499;28;20560;-55
2023/02/13 07:36:07;;;;;;;11.18;7.15;;;2.00;99.90;;;;;;5027469;28;20135;-60
2023/02/13 07:38:32;;;;;;;13.77;6.50;;;2.00;99.90;;;;;;5041171;28;20025;-55
2023/02/13 07:40:59;;;;;;;8.18;4.57;;;2.00;99.90;;;;;;5046339;28;20037;-56
2023/02/13 07:43:25;;;;;;;4.63;3.40;;;2.10;99.90;;;;;;5040366;28;20032;-59
2023/02/13 07:45:54;;;;;;;7.13;3.60;;;2.30;99.90;;;;;;5045791;28;20045;-56
2023/02/13 07:48:21;;;;;;;5.85;2.90;;;2.60;99.90;;;;;;5023651;28;20496;-58
2023/02/13 07:50:47;;;;;;;7.47;2.78;;;2.90;99.90;;;;;;5043928;28;21407;-58
2023/02/13 07:53:12;;;;;;;2.55;1.80;;;3.10;99.90;;;;;;5039782;28;20449;-57
2023/02/13 07:55:38;;;;;;;4.10;2.40;;;3.30;99.90;;;;;;5039339;28;20064;-54
2023/02/13 07:58:04;;;;;;;2.15;0.90;;;3.30;99.90;;;;;;5036647;28;20041;-58
2023/02/13 08:00:29;;;;;;;1.77;0.80;;;3.40;99.90;;;;;;5038427;28;20231;-52
2023/02/13 08:02:58;;;;;;;1.02;0.50;;;3.60;99.90;;;;;;5040644;28;20095;-52
2023/02/13 08:05:24;;;;;;;0.65;0.50;;;3.70;99.90;;;;;;5045251;28;20094;-57
2023/02/13 08:07:50;;;;;;;3.97;0.65;;;3.80;99.90;;;;;;5040618;28;20037;-57
2023/02/13 08:13:01;;;;;;;0.82;0.50;;;4.20;99.90;;;;;;5036219;28;20044;-55
2023/02/13 08:15:27;;;;;;;1.10;0.65;;;4.20;99.90;;;;;;5044060;28;20669;-56
2023/02/13 08:17:52;;;;;;;2.08;0.68;;;4.10;99.90;;;;;;5020088;28;20342;-56
2023/02/13 08:20:18;;;;;;;1.52;0.60;;;4.00;99.90;;;;;;5032183;28;20139;-57
2023/02/13 08:22:44;;;;;;;0.77;0.40;;;3.80;99.90;;;;;;5040268;28;20040;-59
2023/02/13 08:25:09;;;;;;;6.38;0.93;;;3.70;99.90;;;;;;5040224;28;20121;-59
2023/02/13 08:27:35;;;;;;;1.17;0.77;;;3.70;99.90;;;;;;5037977;28;20560;-54
2023/02/13 08:30:02;;;;;;;2.55;0.80;;;3.70;99.90;;;;;;5040876;28;20094;-59
2023/02/13 08:32:28;;;;;;;1.77;1.15;;;3.70;99.90;;;;;;5041091;28;20040;-53
2023/02/13 08:34:53;;;;;;;1.02;0.70;;;3.80;99.90;;;;;;5040421;28;20131;-55
2023/02/13 08:37:19;;;;;;;1.23;0.50;;;3.80;99.90;;;;;;5043974;28;20144;-53
2023/02/13 08:39:44;;;;;;;1.15;0.80;;;3.80;99.90;;;;;;5036717;28;20123;-59
2023/02/13 08:42:10;;;;;;;1.80;1.00;;;3.80;99.90;;;;;;5040895;28;20047;-57
2023/02/13 08:44:39;;;;;;;1.70;0.60;;;3.90;99.90;;;;;;5042985;28;20064;-58
2023/02/13 08:47:06;;;;;;;0.95;0.80;;;4.00;99.90;;;;;;5041775;28;20091;-59
2023/02/13 08:49:32;;;;;;;1.17;0.82;;;4.00;99.90;;;;;;5017909;28;20042;-54
2023/02/13 08:51:59;;;;;;;1.45;0.85;;;4.10;99.90;;;;;;5039346;28;20045;-51
2023/02/13 08:54:26;;;;;;;1.10;0.63;;;4.10;99.90;;;;;;5043297;28;20052;-60
2023/02/13 08:56:53;;;;;;;0.65;0.57;;;4.20;99.90;;;;;;5040906;28;20658;-56
2023/02/13 08:59:19;;;;;;;0.90;0.60;;;4.30;99.90;;;;;;5043265;28;20044;-59
2023/02/13 09:01:44;;;;;;;1.30;0.95;;;4.40;99.90;;;;;;5039690;28;20540;-53
2023/02/13 09:04:10;;;;;;;1.75;0.80;;;4.50;99.90;;;;;;5040733;28;20045;-57
2023/02/13 09:06:36;;;;;;;0.85;0.60;;;4.70;99.90;;;;;;5038796;28;20047;-54
2023/02/13 09:09:04;;;;;;;1.17;0.70;;;4.70;99.90;;;;;;5023156;28;20051;-54
2023/02/13 09:11:30;;;;;;;1.45;1.02;;;4.90;99.90;;;;;;5042599;28;20148;-55
2023/02/13 09:13:55;;;;;;;1.40;0.75;;;5.00;99.90;;;;;;5027389;28;20045;-57
2023/02/13 09:16:21;;;;;;;1.58;1.00;;;5.00;99.90;;;;;;5037529;28;20041;-56
2023/02/13 09:18:48;;;;;;;1.15;0.80;;;5.10;99.90;;;;;;5039883;28;20394;-56
2023/02/13 09:21:14;;;;;;;1.25;0.80;;;5.20;99.90;;;;;;5039776;28;20048;-57
2023/02/13 09:23:40;;;;;;;1.60;0.80;;;5.30;99.90;;;;;;5036831;28;20426;-57
2023/02/13 09:26:11;;;;;;;1.50;0.82;;;5.40;99.90;;;;;;5038496;28;20045;-56
2023/02/13 09:28:38;;;;;;;1.10;0.90;;;5.60;99.90;;;;;;5037892;28;20411;-57
2023/02/13 09:31:09;;;;;;;0.90;0.70;;;5.70;99.90;;;;;;5043016;28;20059;-58
2023/02/13 09:33:35;;;;;;;2.33;0.90;;;5.80;99.90;;;;;;5036215;28;20101;-55
2023/02/13 09:36:10;;;;;;;1.08;0.68;;;5.90;99.90;;;;;;5043998;28;20044;-55
2023/02/13 09:38:35;;;;;;;1.98;1.00;;;6.10;99.90;;;;;;5039559;28;20715;-52
2023/02/13 09:41:24;;;;;;;4.50;1.25;;;6.20;99.90;;;;;;5041105;28;20029;-57
2023/02/13 09:43:58;;;;;;;2.17;1.02;;;6.30;99.90;;;;;;5039383;28;20602;-53
2023/02/13 09:46:28;;;;;;;2.08;1.42;;;6.50;99.90;;;;;;5042819;28;20053;-54
2023/02/13 09:48:56;;;;;;;3.05;1.50;;;6.60;99.90;;;;;;5038669;28;20068;-52
2023/02/13 09:51:24;;;;;;;1.90;1.20;;;6.70;99.90;;;;;;5037582;28;20456;-54
2023/02/13 09:54:02;;;;;;;2.25;1.33;;;6.80;99.90;;;;;;5041391;28;20059;-54
2023/02/13 09:56:51;;;;;;;2.30;1.20;;;7.00;99.90;;;;;;5024413;28;20056;-58
2023/02/13 09:59:40;;;;;;;2.97;1.42;;;7.10;99.90;;;;;;5037728;28;20048;-54
2023/02/13 10:02:44;;;;;;;2.17;1.35;;;7.30;99.90;;;;;;5040394;28;20076;-55
2023/02/13 10:05:41;;;;;;;1.92;1.33;;;7.40;99.90;;;;;;5040480;28;20033;-55
2023/02/13 10:08:32;;;;;;;6.55;2.75;;;7.50;99.90;;;;;;5039349;28;20414;-53
2023/02/13 10:11:30;;;;;;;6.00;3.20;;;7.70;99.90;;;;;;5043361;28;20055;-55
2023/02/13 10:14:24;;;;;;;7.90;3.90;;;7.80;99.90;;;;;;5038820;28;20104;-55
2023/02/13 10:16:57;;;;;;;5.65;3.33;;;7.90;99.90;;;;;;5039328;28;20041;-55
2023/02/13 10:19:40;;;;;;;4.53;2.72;;;8.00;99.90;;;;;;5039927;28;20045;-52
2023/02/13 10:22:21;;;;;;;4.40;1.98;;;8.20;99.90;;;;;;5039357;28;20056;-51
2023/02/13 10:25:05;;;;;;;4.75;2.17;;;8.30;99.90;;;;;;5035033;28;20163;-52
2023/02/13 10:27:38;;;;;;;3.83;2.10;;;8.50;99.90;;;;;;4998268;28;20041;-55
2023/02/13 10:35:31;;;;;;;2.80;1.85;;;8.70;99.90;;;;;;5288192;23;20058;-57
2023/02/13 10:37:58;;;;;;;3.67;1.42;;;8.80;99.90;;;;;;4996530;28;20046;-58
2023/02/13 10:40:34;;;;;;;1.40;1.10;;;9.00;99.90;;;;;;4998455;28;20056;-56
2023/02/13 10:43:08;;;;;;;1.08;0.98;;;9.10;99.90;;;;;;5000657;28;20038;-57
2023/02/13 10:46:07;;;;;;;1.27;0.93;;;9.30;99.90;;;;;;4995268;28;20129;-57
2023/02/13 10:48:54;;;;;;;1.58;1.10;;;9.20;99.90;;;;;;4978879;28;20033;-55
2023/02/13 10:51:34;;;;;;;1.48;1.20;;;9.20;99.90;;;;;;4996157;28;20034;-56
2023/02/13 10:54:16;;;;;;;1.83;1.27;;;9.30;99.90;;;;;;4976490;28;20054;-52
2023/02/13 10:57:06;;;;;;;1.65;1.00;;;9.40;99.90;;;;;;5001675;28;20084;-57
2023/02/13 10:59:52;;;;;;;2.67;1.17;;;9.60;99.90;;;;;;4994048;28;20553;-56
2023/02/13 11:02:31;;;;;;;2.22;1.30;;;9.80;99.90;;;;;;4994849;28;20037;-56
2023/02/13 11:05:12;;;;;;;1.77;1.17;;;9.90;99.90;;;;;;4991645;28;20061;-52
2023/02/13 11:07:38;;;;;;;1.38;1.00;;;9.90;99.90;;;;;;4975864;28;20153;-56
2023/02/13 11:10:22;;;;;;;2.70;1.20;;;10.00;99.90;;;;;;4996019;28;20034;-50
2023/02/13 11:12:48;;;;;;;1.65;1.00;;;10.10;99.90;;;;;;4999617;28;20100;-49
2023/02/13 11:15:27;;;;;;;2.53;1.10;;;10.20;99.90;;;;;;4996824;28;20042;-52
2023/02/13 11:18:13;;;;;;;1.55;1.00;;;10.30;99.90;;;;;;4996364;28;20625;-53
2023/02/13 11:20:48;;;;;;;1.67;1.00;;;10.40;99.90;;;;;;4994042;28;20042;-54
2023/02/13 11:23:22;;;;;;;1.17;0.90;;;10.50;99.90;;;;;;4999119;28;20061;-54
2023/02/13 11:26:21;;;;;;;2.67;1.30;;;10.50;99.90;;;;;;4996573;28;20088;-53
2023/02/13 11:28:52;;;;;;;1.42;1.05;;;10.50;99.90;;;;;;4996722;28;20038;-53
2023/02/13 11:31:22;;;;;;;1.48;1.02;;;10.60;99.90;;;;;;4998648;28;20049;-56
2023/02/13 11:33:48;;;;;;;1.60;1.20;;;10.70;99.90;;;;;;4996485;28;20474;-55
2023/02/13 11:36:15;;;;;;;;;;;10.70;99.90;;;;;;4997559;28;20038;-55
2023/02/13 11:38:41;;;;;;;1.25;0.93;;;10.80;99.90;;;;;;4999067;28;19925;-52
2023/02/13 11:41:11;;;;;;;1.20;1.00;;;10.90;99.90;;;;;;4982579;28;20046;-58
2023/02/13 11:43:44;;;;;;;1.40;1.05;;;10.90;99.90;;;;;;4997953;28;20045;-51
2023/02/13 11:46:19;;;;;;;2.67;1.10;;;11.00;99.90;;;;;;4999207;28;20045;-56
2023/02/13 11:49:16;;;;;;;1.58;0.98;;;11.00;99.90;;;;;;4996152;28;20042;-57
2023/02/13 11:51:50;;;;;;;2.33;1.17;;;11.10;99.90;;;;;;4997558;28;20119;-57
2023/02/13 11:54:42;;;;;;;1.45;0.88;;;11.20;99.90;;;;;;4995346;28;20136;-52
2023/02/13 11:57:28;;;;;;;1.23;1.02;;;11.20;99.90;;;;;;4986607;28;20583;-54
2023/02/13 11:59:54;;;;;;;0.57;0.50;;;11.30;99.90;;;;;;4998877;28;20050;-52
2023/02/13 12:02:19;;;;;;;;;;;11.30;99.90;;;;;;4999703;28;20092;-51
2023/02/13 12:04:46;;;;;;;0.40;0.30;;;11.40;99.90;;;;;;4995926;28;19968;-54
2023/02/13 12:07:25;;;;;;;0.57;0.45;;;11.40;99.90;;;;;;4998329;28;20038;-55
2023/02/13 12:10:16;;;;;;;0.40;0.30;;;11.50;99.90;;;;;;4978463;28;20034;-57
2023/02/13 12:13:17;;;;;;;0.30;0.30;;;11.50;99.90;;;;;;4992256;28;20136;-54
2023/02/13 12:15:44;;;;;;;0.40;0.30;;;11.50;99.90;;;;;;4996804;28;20037;-53
2023/02/13 12:18:15;;;;;;;1.33;0.30;;;11.60;99.90;;;;;;4998366;28;20213;-57
2023/02/13 12:20:53;;;;;;;0.22;0.17;;;11.60;99.90;;;;;;4997316;28;20405;-53
2023/02/13 12:23:52;;;;;;;0.50;0.30;;;11.60;99.90;;;;;;4994945;28;20038;-57
2023/02/13 12:26:39;;;;;;;0.30;0.20;;;11.70;99.90;;;;;;4991540;28;20125;-58
2023/02/13 12:29:32;;;;;;;4.85;1.00;;;11.80;99.90;;;;;;4999622;28;20041;-55
2023/02/13 12:32:18;;;;;;;1.00;0.30;;;11.80;99.90;;;;;;5014190;28;20044;-52
2023/02/13 12:35:41;;;;;;;1.05;0.40;;;12.00;99.90;;;;;;5024160;28;20037;-53
2023/02/13 12:38:41;;;;;;;0.70;0.50;;;12.10;99.90;;;;;;4900534;29;20036;-57
2023/02/13 12:41:27;;;;;;;1.70;0.50;;;12.10;99.90;;;;;;4900332;29;20702;-52
2023/02/13 12:44:31;;;;;;;2.75;0.40;;;12.00;99.90;;;;;;5000931;28;20057;-54
2023/02/13 12:47:16;;;;;;;0.73;0.40;;;12.00;99.90;;;;;;5018678;28;20124;-52
2023/02/13 12:49:51;;;;;;;0.50;0.40;;;12.10;99.90;;;;;;5005244;28;20042;-54
2023/02/13 12:52:19;;;;;;;0.80;0.47;;;12.20;99.90;;;;;;5022377;28;20041;-53
2023/02/13 12:55:10;;;;;;;0.38;0.38;;;12.10;99.90;;;;;;5023072;28;20516;-54
2023/02/13 12:58:00;;;;;;;1.00;0.40;;;12.10;99.90;;;;;;5023668;28;20124;-54
2023/02/13 13:00:34;;;;;;;1.00;0.43;;;12.10;99.90;;;;;;5027515;28;20179;-53
2023/02/13 13:03:36;;;;;;;0.35;0.25;;;12.10;99.90;;;;;;5024601;28;20078;-53
2023/02/13 13:06:20;;;;;;;0.63;0.40;;;12.10;99.90;;;;;;5012096;28;20033;-55
2023/02/13 13:08:48;;;;;;;1.83;0.60;;;12.10;99.90;;;;;;5017648;28;20091;-54
2023/02/13 13:11:43;;;;;;;3.30;0.60;;;12.00;99.90;;;;;;5025752;28;20037;-55
2023/02/13 13:14:40;;;;;;;0.63;0.40;;;11.90;99.90;;;;;;5020720;28;20132;-51
2023/02/13 13:17:05;;;;;;;0.57;0.50;;;11.90;99.90;;;;;;5020872;28;20051;-59
2023/02/13 13:20:03;;;;;;;1.65;0.55;;;11.90;99.90;;;;;;5022267;28;20030;-55
2023/02/13 13:22:50;;;;;;;0.50;0.30;;;12.00;99.90;;;;;;5022894;28;20040;-54
2023/02/13 13:25:31;;;;;;;3.63;0.40;;;11.90;99.90;;;;;;5021960;28;20040;-57
2023/02/13 13:28:10;;;;;;;1.20;0.55;;;11.90;99.90;;;;;;5020754;28;20057;-54
2023/02/13 13:30:37;;;;;;;5.47;0.63;;;11.90;99.90;;;;;;5020400;28;20048;-51
2023/02/13 13:33:16;;;;;;;0.50;0.30;;;11.80;99.90;;;;;;5022410;28;20044;-57
2023/02/13 13:35:50;;;;;;;1.25;0.35;;;11.80;99.90;;;;;;5022337;28;21225;-55
2023/02/13 13:38:51;;;;;;;4.53;0.80;;;11.80;99.90;;;;;;5017756;28;20045;-51
2023/02/13 13:41:22;;;;;;;2.53;0.50;;;11.80;99.90;;;;;;5022002;28;20029;-55
2023/02/13 13:44:09;;;;;;;2.65;0.40;;;11.70;99.90;;;;;;5015611;28;20043;-55
2023/02/13 13:47:12;;;;;;;2.88;0.82;;;11.60;99.90;;;;;;5019059;28;20627;-52
2023/02/13 13:49:58;;;;;;;1.30;0.60;;;11.50;99.90;;;;;;5021010;28;20037;-49
2023/02/13 13:52:33;;;;;;;0.60;0.40;;;11.50;99.90;;;;;;5020956;28;20053;-54
2023/02/13 13:55:01;;;;;;;0.68;0.45;;;11.60;99.90;;;;;;5019012;28;20499;-51
2023/02/13 13:57:55;;;;;;;3.28;0.45;;;11.60;99.90;;;;;;5021801;28;20056;-52
2023/02/13 14:00:25;;;;;;;2.78;0.47;;;11.50;99.90;;;;;;5020593;28;20045;-62
2023/02/13 14:03:20;;;;;;;1.25;0.50;;;11.50;99.90;;;;;;5018848;28;20073;-54
2023/02/13 14:06:04;;;;;;;1.10;0.40;;;11.60;99.90;;;;;;5018472;28;20045;-53
2023/02/13 14:08:38;;;;;;;0.38;0.38;;;11.60;99.90;;;;;;5017533;28;20390;-52
2023/02/13 14:11:06;;;;;;;2.05;0.43;;;11.50;99.90;;;;;;5022704;28;20052;-53